Time;durP1;ratioP1;P1;durP2;ratioP2;P2;SDS_P1;SDS_P2;PMS_P1;PMS_P2;Temp;Humidity;BMP_temperature;BMP_pressure;BME280_temperature;BME280_humidity;BME280_pressure;Samples;Min_cycle;Max_cycle;Signal;HPM_P1;HPM_P2
2022/07/30 00:01:06;;;;;;;4.90;2.10;;;;;;;16.06;100.00;101065.41;4937482;29;20433;-83
2022/07/30 00:03:35;;;;;;;5.90;2.13;;;;;;;16.04;100.00;101066.84;4933959;29;20437;-83
2022/07/30 00:06:09;;;;;;;4.37;1.60;;;;;;;16.01;100.00;101057.28;4932806;29;20438;-84
2022/07/30 00:08:37;;;;;;;3.63;1.73;;;;;;;16.07;100.00;101067.03;4933611;29;20432;-84
2022/07/30 00:11:10;;;;;;;4.18;1.80;;;;;;;16.05;100.00;101066.53;4934536;29;20431;-84
2022/07/30 00:13:43;;;;;;;4.33;1.97;;;;;;;16.06;100.00;101056.34;4949789;28;20437;-83
2022/07/30 00:16:17;;;;;;;6.22;1.90;;;;;;;15.97;100.00;101048.84;4949943;28;20432;-84
2022/07/30 00:18:51;;;;;;;4.90;1.88;;;;;;;16.03;100.00;101046.78;4941914;29;21158;-84
2022/07/30 00:21:24;;;;;;;4.10;1.80;;;;;;;16.09;100.00;101053.00;4944428;29;20470;-83
2022/07/30 00:23:57;;;;;;;5.82;2.00;;;;;;;16.07;100.00;101056.03;4935632;29;20425;-84
2022/07/30 00:26:31;;;;;;;5.30;2.10;;;;;;;16.04;100.00;101050.38;4934139;29;20438;-83
2022/07/30 00:29:05;;;;;;;4.88;2.10;;;;;;;16.07;100.00;101039.56;4949821;28;20791;-84
2022/07/30 00:31:34;;;;;;;3.75;1.73;;;;;;;15.97;100.00;101031.56;4932506;29;21298;-84
2022/07/30 00:34:03;;;;;;;5.32;2.00;;;;;;;15.79;100.00;101016.81;4943255;29;20407;-84
2022/07/30 00:36:36;;;;;;;6.55;2.00;;;;;;;15.90;100.00;101036.66;4953049;29;20436;-84
2022/07/30 00:39:10;;;;;;;3.58;1.98;;;;;;;15.79;100.00;101027.81;4954128;29;20418;-84
2022/07/30 00:41:53;;;;;;;5.10;1.85;;;;;;;15.90;100.00;101042.97;4935800;29;20450;-84
2022/07/30 00:44:27;;;;;;;5.75;2.20;;;;;;;15.89;100.00;101040.53;4954131;29;20420;-84
2022/07/30 00:47:00;;;;;;;3.15;1.70;;;;;;;15.88;100.00;101033.41;4935851;29;20445;-83
2022/07/30 00:49:35;;;;;;;4.68;2.00;;;;;;;15.84;100.00;101030.47;4931134;29;20425;-83
2022/07/30 00:52:08;;;;;;;6.80;1.90;;;;;;;15.81;100.00;101031.06;4936228;29;20434;-83
2022/07/30 00:54:41;;;;;;;6.22;2.00;;;;;;;15.78;100.00;101024.25;4936574;29;20441;-84
2022/07/30 00:57:14;;;;;;;5.68;2.13;;;;;;;15.69;100.00;101026.09;4929297;29;20440;-84
2022/07/30 00:59:42;;;;;;;4.70;1.90;;;;;;;15.67;100.00;101022.03;4933076;29;20431;-84
2022/07/30 01:02:15;;;;;;;6.27;2.10;;;;;;;15.67;100.00;101022.03;4949507;28;20453;-84
2022/07/30 01:04:50;;;;;;;4.07;1.85;;;;;;;15.61;100.00;101022.13;4945743;29;20437;-83
2022/07/30 01:07:23;;;;;;;5.20;2.00;;;;;;;15.53;100.00;101011.06;4935094;29;20424;-84
2022/07/30 01:09:57;;;;;;;5.45;1.90;;;;;;;15.67;100.00;101016.53;4935643;29;20441;-84
2022/07/30 01:12:33;;;;;;;5.13;1.80;;;;;;;15.55;100.00;101008.81;4946131;29;21183;-84
2022/07/30 01:15:09;;;;;;;6.93;2.10;;;;;;;15.57;100.00;101012.06;4934844;29;20906;-84
2022/07/30 01:17:42;;;;;;;6.40;2.20;;;;;;;15.53;100.00;101014.59;4926615;29;20426;-84
2022/07/30 01:20:19;;;;;;;5.47;1.92;;;;;;;15.57;100.00;101009.31;4948931;28;20430;-84
2022/07/30 01:22:59;;;;;;;4.68;1.90;;;;;;;15.52;100.00;101009.41;4935614;28;20425;-83
2022/07/30 01:25:50;;;;;;;3.97;2.10;;;;;;;15.50;100.00;101006.97;4932723;29;20435;-84
2022/07/30 01:28:23;;;;;;;4.80;2.00;;;;;;;15.51;100.00;101013.28;4932567;28;20786;-84
2022/07/30 01:30:57;;;;;;;3.65;1.90;;;;;;;15.43;100.00;101010.13;4949833;29;20922;-84
2022/07/30 01:33:33;;;;;;;5.50;2.00;;;;;;;15.40;100.00;101012.69;4935531;29;20433;-84
2022/07/30 01:36:10;;;;;;;7.53;2.20;;;;;;;15.44;100.00;101013.72;4935842;29;20453;-84
2022/07/30 01:38:41;;;;;;;3.28;1.98;;;;;;;15.47;100.00;101013.88;4933146;29;20438;-84
2022/07/30 01:41:18;;;;;;;6.28;2.30;;;;;;;15.40;100.00;101009.94;4929185;29;20427;-84
2022/07/30 01:43:53;;;;;;;4.80;1.90;;;;;;;15.32;100.00;101010.66;4950593;28;20434;-83
2022/07/30 01:46:28;;;;;;;4.45;2.10;;;;;;;15.34;100.00;101003.72;4950151;29;20426;-84
2022/07/30 01:49:03;;;;;;;3.43;1.90;;;;;;;15.35;100.00;101015.53;4930402;29;20799;-84
2022/07/30 01:51:34;;;;;;;10.40;2.10;;;;;;;15.32;100.00;101003.22;4925331;29;20442;-84
2022/07/30 01:54:12;;;;;;;3.92;2.00;;;;;;;15.37;100.00;101010.53;4948439;29;20418;-84
2022/07/30 01:56:44;;;;;;;3.95;1.90;;;;;;;15.34;100.00;101008.41;4935156;29;20433;-84
2022/07/30 01:59:20;;;;;;;4.00;1.90;;;;;;;15.35;100.00;101002.59;4933636;29;20514;-84
2022/07/30 02:01:53;;;;;;;3.67;1.83;;;;;;;15.28;100.00;101005.75;4947248;29;20788;-84
2022/07/30 02:04:27;;;;;;;3.88;1.80;;;;;;;15.34;100.00;100995.50;4932881;29;20952;-84
2022/07/30 02:07:00;;;;;;;5.90;2.00;;;;;;;15.27;100.00;100992.34;4945314;29;20449;-84
2022/07/30 02:09:37;;;;;;;4.88;1.83;;;;;;;15.24;100.00;100996.50;4926603;29;20433;-84
2022/07/30 02:12:29;;;;;;;3.90;1.92;;;;;;;15.19;100.00;100993.06;4929208;29;20780;-83
2022/07/30 02:15:11;;;;;;;4.45;1.90;;;;;;;15.14;100.00;100996.72;4928399;29;20435;-84
2022/07/30 02:17:59;;;;;;;5.68;1.83;;;;;;;15.05;100.00;100985.66;4945092;28;20793;-84
2022/07/30 02:20:34;;;;;;;4.85;1.95;;;;;;;15.05;100.00;100993.88;4952058;29;20422;-84
2022/07/30 02:23:08;;;;;;;6.78;2.13;;;;;;;15.02;100.00;100994.44;4931347;29;20932;-84
2022/07/30 02:25:47;;;;;;;6.18;2.08;;;;;;;14.93;100.00;100997.09;4934475;29;20438;-84
2022/07/30 02:28:24;;;;;;;5.05;2.10;;;;;;;14.87;100.00;100998.28;4933112;29;20791;-84
2022/07/30 02:30:59;;;;;;;7.38;2.05;;;;;;;14.92;100.00;100995.44;4947587;28;20898;-84
2022/07/30 02:33:37;;;;;;;5.55;2.10;;;;;;;14.89;100.00;100992.53;4937709;29;20425;-84
2022/07/30 02:36:12;;;;;;;5.72;1.95;;;;;;;14.94;100.00;100995.16;4948066;29;20438;-84
2022/07/30 02:38:46;;;;;;;4.63;2.05;;;;;;;14.91;100.00;100999.31;4934871;29;20423;-84
2022/07/30 02:41:15;;;;;;;4.70;2.42;;;;;;;14.85;100.00;100992.28;4953241;29;20794;-84
2022/07/30 02:43:46;;;;;;;6.82;2.15;;;;;;;14.81;100.00;100990.47;4937651;29;20437;-83
2022/07/30 02:46:17;;;;;;;4.80;2.15;;;;;;;14.83;100.00;100988.22;4949091;28;20903;-83
2022/07/30 02:49:13;;;;;;;5.57;2.17;;;;;;;14.82;100.00;100989.34;4950013;29;20437;-84
2022/07/30 02:51:49;;;;;;;5.32;2.30;;;;;;;14.84;100.00;100996.16;4947270;29;20453;-84
2022/07/30 02:54:19;;;;;;;5.03;2.00;;;;;;;14.75;100.00;100979.59;4935963;29;20435;-84
2022/07/30 02:56:50;;;;;;;5.03;2.13;;;;;;;15.02;100.00;100999.13;4932148;29;20439;-84
2022/07/30 02:59:28;;;;;;;5.87;2.20;;;;;;;14.98;100.00;101001.66;4935855;29;20787;-84
2022/07/30 03:02:04;;;;;;;4.97;1.90;;;;;;;14.90;100.00;100997.69;4898614;29;1055929;-84
2022/07/30 03:04:38;;;;;;;5.75;2.00;;;;;;;14.94;100.00;101008.84;4951541;29;20425;-84
2022/07/30 03:07:12;;;;;;;3.60;1.98;;;;;;;14.90;100.00;100999.59;4956216;29;20473;-84
2022/07/30 03:09:46;;;;;;;5.43;2.00;;;;;;;14.94;100.00;101006.94;4930157;29;20765;-84
2022/07/30 03:12:16;;;;;;;5.65;2.13;;;;;;;14.92;100.00;101011.09;4952488;29;20433;-84
2022/07/30 03:14:51;;;;;;;6.82;2.13;;;;;;;15.00;100.00;101015.06;4956797;28;20425;-84
2022/07/30 03:17:22;;;;;;;3.70;1.92;;;;;;;15.08;100.00;101019.84;4954132;29;20426;-84
2022/07/30 03:19:50;;;;;;;5.50;2.08;;;;;;;15.10;100.00;101014.88;4954571;29;20432;-84
2022/07/30 03:22:21;;;;;;;4.57;2.20;;;;;;;15.08;100.00;101006.13;4936585;29;20419;-84
2022/07/30 03:24:50;;;;;;;5.30;2.25;;;;;;;15.10;100.00;101009.41;4948778;28;20429;-84
2022/07/30 03:27:19;;;;;;;4.90;2.00;;;;;;;15.08;100.00;101011.63;4938230;29;20432;-84
2022/07/30 03:29:56;;;;;;;6.28;2.20;;;;;;;15.07;100.00;101007.28;4953010;28;20444;-84
2022/07/30 03:32:31;;;;;;;3.58;2.10;;;;;;;15.07;100.00;100999.84;4936778;29;20428;-84
2022/07/30 03:35:00;;;;;;;5.05;2.20;;;;;;;14.98;100.00;101000.84;4954274;29;20444;-84
2022/07/30 03:37:36;;;;;;;5.82;2.35;;;;;;;15.15;100.00;101003.84;4933577;29;20426;-84
2022/07/30 03:40:11;;;;;;;3.70;1.85;;;;;;;15.13;100.00;101009.63;4953867;28;20926;-83
2022/07/30 03:42:46;;;;;;;4.97;2.33;;;;;;;15.07;100.00;101016.28;4935699;29;20414;-83
2022/07/30 03:45:25;;;;;;;3.85;2.08;;;;;;;15.04;100.00;101019.66;4943458;28;20439;-84
2022/07/30 03:47:58;;;;;;;7.80;2.40;;;;;;;15.02;100.00;101021.06;4938170;29;20449;-84
2022/07/30 03:50:35;;;;;;;4.90;2.25;;;;;;;15.00;100.00;101015.06;4935400;29;20788;-83
2022/07/30 03:53:10;;;;;;;4.80;2.20;;;;;;;14.95;100.00;101011.28;4934694;29;20428;-84
2022/07/30 03:56:09;;;;;;;4.60;2.10;;;;;;;14.94;100.00;101014.34;4951813;29;20444;-84
2022/07/30 03:59:01;;;;;;;4.30;2.17;;;;;;;14.87;100.00;101009.25;4961816;28;20425;-84
2022/07/30 04:01:39;;;;;;;4.53;2.30;;;;;;;14.89;100.00;101017.19;4932049;29;20426;-84
2022/07/30 04:04:20;;;;;;;3.97;2.20;;;;;;;14.86;100.00;101021.34;4929113;29;20440;-83
2022/07/30 04:06:54;;;;;;;4.88;2.30;;;;;;;14.86;100.00;101023.25;4938273;29;20779;-84
2022/07/30 04:09:23;;;;;;;5.03;2.22;;;;;;;14.80;100.00;101017.03;4923058;29;20457;-84
2022/07/30 04:11:56;;;;;;;6.32;2.15;;;;;;;14.78;100.00;101022.03;4933368;29;20434;-83
2022/07/30 04:14:40;;;;;;;6.03;2.00;;;;;;;14.77;100.00;101023.94;4934166;29;20435;-84
2022/07/30 04:17:15;;;;;;;6.17;2.30;;;;;;;14.83;100.00;101027.41;4949984;29;20426;-83
2022/07/30 04:19:52;;;;;;;7.10;2.30;;;;;;;14.73;100.00;101028.38;4934262;29;20439;-84
2022/07/30 04:22:30;;;;;;;4.20;2.15;;;;;;;14.73;100.00;101031.13;4930586;29;20426;-84
2022/07/30 04:25:05;;;;;;;4.30;2.08;;;;;;;14.74;100.00;101024.53;4932454;29;20426;-84
2022/07/30 04:27:39;;;;;;;4.38;2.03;;;;;;;14.81;100.00;101028.84;4934228;29;20939;-84
2022/07/30 04:30:13;;;;;;;5.57;2.17;;;;;;;14.85;100.00;101036.13;4936749;29;20430;-84
2022/07/30 04:32:47;;;;;;;6.70;2.10;;;;;;;14.88;100.00;101035.53;4932903;29;20429;-84
2022/07/30 04:35:36;;;;;;;4.78;2.10;;;;;;;14.93;100.00;101029.16;4949803;28;20785;-84
2022/07/30 04:38:13;;;;;;;5.00;2.08;;;;;;;14.96;100.00;101025.81;4933734;29;20424;-83
2022/07/30 04:40:50;;;;;;;5.03;2.00;;;;;;;14.91;100.00;101031.38;4949997;29;20414;-84
2022/07/30 04:43:23;;;;;;;5.03;1.95;;;;;;;14.75;100.00;101036.31;4935650;29;20422;-84
2022/07/30 04:45:57;;;;;;;6.30;2.30;;;;;;;14.95;100.00;101029.66;4931947;29;20437;-84
2022/07/30 04:48:32;;;;;;;4.93;2.40;;;;;;;14.97;100.00;101038.41;4933185;29;20514;-85
2022/07/30 04:51:15;;;;;;;4.28;2.05;;;;;;;15.00;100.00;101035.06;4936879;29;20426;-84
2022/07/30 04:53:50;;;;;;;5.88;2.22;;;;;;;14.96;100.00;101034.84;4935599;29;20449;-84
2022/07/30 04:56:25;;;;;;;5.60;2.30;;;;;;;15.04;100.00;101036.09;4934737;29;20430;-84
2022/07/30 04:58:55;;;;;;;5.30;2.40;;;;;;;15.17;100.00;101041.91;4947724;29;20429;-84
2022/07/30 05:01:34;;;;;;;4.93;2.05;;;;;;;15.16;100.00;101027.38;4947075;28;20435;-84
2022/07/30 05:04:10;;;;;;;6.35;2.20;;;;;;;15.04;100.00;101046.22;4936386;29;20438;-84
2022/07/30 05:06:45;;;;;;;5.43;2.30;;;;;;;14.99;100.00;101038.91;4929367;29;20429;-84
2022/07/30 05:09:19;;;;;;;5.80;2.20;;;;;;;15.07;100.00;101046.44;4934577;29;20763;-84
2022/07/30 05:11:51;;;;;;;4.35;2.13;;;;;;;15.19;100.00;101047.88;4933796;29;20884;-84
2022/07/30 05:14:25;;;;;;;5.40;2.25;;;;;;;15.11;100.00;101046.66;4946635;29;20430;-84
2022/07/30 05:16:58;;;;;;;6.18;2.30;;;;;;;15.21;100.00;101043.72;4933263;29;20462;-84
2022/07/30 05:19:33;;;;;;;3.75;2.10;;;;;;;15.22;100.00;101052.75;4950132;29;20783;-84
2022/07/30 05:22:06;;;;;;;4.03;2.30;;;;;;;15.43;100.00;101048.53;4934401;29;20430;-84
2022/07/30 05:24:40;;;;;;;4.78;2.30;;;;;;;15.63;100.00;101041.00;4944235;28;20435;-84
2022/07/30 05:27:14;;;;;;;4.75;2.20;;;;;;;15.81;100.00;101044.78;4947856;29;20425;-84
2022/07/30 05:29:47;;;;;;;4.18;2.10;;;;;;;16.01;100.00;101046.31;4952103;28;20429;-84
2022/07/30 05:32:22;;;;;;;5.25;2.13;;;;;;;16.71;100.00;101044.16;4928463;29;20432;-84
2022/07/30 05:34:52;;;;;;;6.40;2.20;;;;;;;17.27;100.00;101033.66;4928064;29;21113;-84
2022/07/30 05:37:25;;;;;;;7.30;2.20;;;;;;;18.26;100.00;101038.00;4935237;29;20441;-84
2022/07/30 05:39:58;;;;;;;4.78;2.17;;;;;;;18.79;100.00;101035.22;4930856;29;20431;-84
2022/07/30 05:42:45;;;;;;;4.05;2.25;;;;;;;17.54;100.00;101040.09;4949366;29;20436;-84
2022/07/30 05:45:18;;;;;;;3.38;1.83;;;;;;;17.34;100.00;101039.53;4948040;29;20456;-84
2022/07/30 05:47:51;;;;;;;3.80;1.85;;;;;;;17.80;100.00;101042.91;4932352;29;20792;-85
2022/07/30 05:50:26;;;;;;;3.80;1.98;;;;;;;17.13;100.00;101033.75;4960621;28;20854;-84
2022/07/30 05:52:59;;;;;;;4.60;2.10;;;;;;;16.83;100.00;101047.16;4941311;29;20446;-84
2022/07/30 05:56:05;;;;;;;4.57;2.10;;;;;;;16.70;100.00;101042.53;4951678;29;20445;-84
2022/07/30 05:58:52;;;;;;;4.05;2.00;;;;;;;16.35;100.00;101046.94;4931208;29;20449;-84
2022/07/30 06:01:53;;;;;;;9.57;2.20;;;;;;;16.47;100.00;101047.19;4942833;29;20425;-84
2022/07/30 06:04:34;;;;;;;4.10;2.00;;;;;;;16.54;100.00;101053.06;4932445;28;20439;-84
2022/07/30 06:07:06;;;;;;;5.00;1.90;;;;;;;16.51;100.00;101052.88;4938762;29;20421;-83
2022/07/30 06:09:40;;;;;;;4.60;2.20;;;;;;;16.55;100.00;101053.88;4934659;29;20429;-84
2022/07/30 06:12:14;;;;;;;5.28;2.20;;;;;;;16.47;100.00;101049.94;4930558;29;20443;-84
2022/07/30 06:14:47;;;;;;;3.75;2.00;;;;;;;16.55;100.00;101049.19;4932923;29;20437;-84
2022/07/30 06:17:26;;;;;;;6.55;2.15;;;;;;;16.59;100.00;101054.88;4947529;28;20432;-84
2022/07/30 06:20:09;;;;;;;6.70;2.37;;;;;;;16.51;100.00;101061.13;4946472;29;20543;-84
2022/07/30 06:23:13;;;;;;;5.70;2.55;;;;;;;16.32;100.00;101056.59;4912690;29;20425;-84
2022/07/30 06:26:06;;;;;;;5.43;2.40;;;;;;;16.27;100.00;101052.03;4947585;28;20433;-83
2022/07/30 06:28:40;;;;;;;4.65;2.60;;;;;;;16.35;100.00;101052.41;4931614;29;20430;-84
2022/07/30 06:31:25;;;;;;;4.13;2.38;;;;;;;16.47;100.00;101048.03;4949277;28;20434;-84
2022/07/30 06:33:58;;;;;;;5.15;2.28;;;;;;;16.58;100.00;101053.25;4925776;29;20426;-84
2022/07/30 06:36:37;;;;;;;4.50;2.20;;;;;;;16.67;100.00;101054.16;4949737;29;20430;-84
2022/07/30 06:39:21;;;;;;;4.40;2.30;;;;;;;16.72;100.00;101050.44;4939429;28;20425;-83
2022/07/30 06:41:54;;;;;;;4.25;2.15;;;;;;;16.77;100.00;101048.38;4950712;29;20430;-84
2022/07/30 06:44:36;;;;;;;5.35;2.50;;;;;;;16.75;100.00;101036.91;4932008;28;20894;-84
2022/07/30 06:47:27;;;;;;;5.85;2.50;;;;;;;16.93;100.00;101056.28;4945912;29;20437;-84
2022/07/30 06:49:57;;;;;;;3.72;2.20;;;;;;;17.01;100.00;101052.75;4949477;29;20446;-84
2022/07/30 06:52:32;;;;;;;4.07;2.30;;;;;;;17.09;100.00;101057.50;4941441;28;20794;-84
2022/07/30 06:55:08;;;;;;;5.10;2.60;;;;;;;17.30;100.00;101055.03;4950315;29;20791;-83
2022/07/30 06:57:47;;;;;;;6.65;2.30;;;;;;;17.61;100.00;101053.41;4942337;28;20437;-83
2022/07/30 07:00:55;;;;;;;4.35;2.10;;;;;;;18.00;100.00;101046.22;4943602;29;20960;-83
2022/07/30 07:03:25;;;;;;;5.13;2.30;;;;;;;18.34;100.00;101048.22;4932059;29;20436;-82
2022/07/30 07:05:58;;;;;;;5.05;2.30;;;;;;;18.59;100.00;101044.94;4932815;29;20445;-82
2022/07/30 07:08:32;;;;;;;5.50;2.30;;;;;;;18.72;100.00;101049.47;4937645;28;20434;-83
2022/07/30 07:11:08;;;;;;;5.20;2.60;;;;;;;18.99;100.00;101053.06;4943284;29;20424;-83
2022/07/30 07:13:51;;;;;;;4.47;2.20;;;;;;;19.18;100.00;101044.38;4941726;28;20908;-83
2022/07/30 07:16:31;;;;;;;4.57;2.50;;;;;;;19.31;100.00;101039.81;4947759;28;20428;-84
2022/07/30 07:19:33;;;;;;;6.55;2.25;;;;;;;19.51;100.00;101041.00;4953421;28;20433;-85
2022/07/30 07:22:06;;;;;;;6.30;2.30;;;;;;;19.65;100.00;101040.78;4951116;28;20430;-84
2022/07/30 07:24:34;;;;;;;5.15;2.40;;;;;;;19.76;100.00;101038.44;4949067;28;20910;-84
2022/07/30 07:27:14;;;;;;;4.82;2.03;;;;;;;19.75;100.00;101028.53;4928080;29;20434;-85
2022/07/30 07:29:50;;;;;;;4.63;2.15;;;;;;;19.94;100.00;101020.66;4934087;29;20796;-85
2022/07/30 07:32:18;;;;;;;3.60;2.28;;;;;;;20.17;100.00;101029.41;4950648;28;20908;-86
2022/07/30 07:34:51;;;;;;;4.30;2.30;;;;;;;20.37;100.00;101025.06;4945641;28;20432;-83
2022/07/30 07:37:25;;;;;;;4.00;2.15;;;;;;;20.43;100.00;101024.84;4948000;28;20443;-86
2022/07/30 07:39:59;;;;;;;4.35;2.10;;;;;;;20.56;100.00;101020.97;4933073;29;20440;-84
2022/07/30 07:42:37;;;;;;;4.38;2.38;;;;;;;20.48;100.00;101025.44;4946346;28;20434;-84
2022/07/30 07:45:11;;;;;;;4.30;2.10;;;;;;;20.58;100.00;101026.16;4930357;29;20433;-84
2022/07/30 07:47:48;;;;;;;5.78;2.38;;;;;;;;;;4934416;29;20918;-84
2022/07/30 07:50:48;;;;;;;4.95;2.30;;;;;;;20.89;100.00;101028.47;4942813;28;20445;-84
2022/07/30 07:53:25;;;;;;;4.80;2.40;;;;;;;20.87;100.00;101022.50;4931210;29;21978;-83
2022/07/30 07:55:58;;;;;;;6.75;3.22;;;;;;;20.85;100.00;101027.56;4931181;29;20433;-84
2022/07/30 07:58:33;;;;;;;4.93;2.40;;;;;;;21.13;100.00;101021.38;4946264;28;20438;-86
2022/07/30 08:01:02;;;;;;;4.47;2.13;;;;;;;21.40;100.00;101026.28;4929155;29;20430;-85
2022/07/30 08:04:07;;;;;;;6.38;3.15;;;;;;;21.76;100.00;101026.63;4946646;28;20433;-85
2022/07/30 08:07:03;;;;;;;24.52;3.15;;;;;;;21.81;100.00;101028.38;4947803;28;20795;-84
2022/07/30 08:10:07;;;;;;;4.97;2.30;;;;;;;22.01;100.00;101021.88;4934789;28;20544;-84
2022/07/30 08:12:54;;;;;;;6.30;2.50;;;;;;;22.07;100.00;101019.66;4944503;28;20436;-84
2022/07/30 08:15:46;;;;;;;4.70;2.35;;;;;;;22.26;100.00;101019.00;4943199;28;20775;-84
2022/07/30 08:18:42;;;;;;;4.37;2.30;;;;;;;22.21;100.00;101020.06;4924839;28;20430;-84
2022/07/30 08:21:27;;;;;;;5.93;2.38;;;;;;;22.44;100.00;101019.53;4944670;28;20441;-85
2022/07/30 08:24:00;;;;;;;8.82;2.60;;;;;;;22.65;100.00;101021.31;4945017;28;20818;-84
2022/07/30 08:26:33;;;;;;;4.97;2.10;;;;;;;22.71;100.00;101011.59;4946976;28;20443;-84
2022/07/30 08:29:02;;;;;;;5.00;2.17;;;;;;;22.95;100.00;101016.16;4948243;28;20438;-85
2022/07/30 08:31:32;;;;;;;4.63;2.27;;;;;;;22.93;98.27;101010.19;4936392;29;20763;-87
2022/07/30 08:34:02;;;;;;;5.50;2.35;;;;;;;23.14;93.20;101020.25;4943692;29;20948;-85
2022/07/30 08:36:35;;;;;;;4.28;2.20;;;;;;;23.01;98.41;101019.53;4953224;29;20805;-85
2022/07/30 08:39:08;;;;;;;9.77;2.40;;;;;;;23.10;100.00;101020.13;4931950;29;20445;-85
2022/07/30 08:41:42;;;;;;;6.05;2.35;;;;;;;23.49;100.00;101020.34;4943033;28;20424;-85
2022/07/30 08:44:18;;;;;;;6.32;2.45;;;;;;;23.58;99.83;101020.94;4946441;28;20432;-85
2022/07/30 08:46:52;;;;;;;6.90;2.40;;;;;;;23.82;96.39;101026.63;4933909;29;20425;-85
2022/07/30 08:49:33;;;;;;;5.90;2.33;;;;;;;23.84;100.00;101021.53;4942170;28;20445;-85
2022/07/30 08:52:07;;;;;;;3.55;2.00;;;;;;;23.93;89.57;101022.97;4927420;29;20955;-85
2022/07/30 08:54:45;;;;;;;4.38;2.28;;;;;;;23.89;91.05;101024.88;4927669;29;20436;-86
2022/07/30 08:57:14;;;;;;;4.57;2.30;;;;;;;24.03;85.49;101020.78;4949995;28;20756;-86
2022/07/30 08:59:50;;;;;;;8.23;2.30;;;;;;;24.28;88.27;101026.88;4926655;29;20437;-86
2022/07/30 09:02:25;;;;;;;4.67;2.20;;;;;;;23.96;85.30;101029.78;4934545;28;20437;-85
2022/07/30 09:05:01;;;;;;;4.47;2.27;;;;;;;23.91;86.00;101030.06;4946212;29;20418;-85
2022/07/30 09:07:36;;;;;;;4.88;2.30;;;;;;;23.97;82.67;101022.25;4929788;28;20470;-86
2022/07/30 09:10:16;;;;;;;5.75;2.60;;;;;;;24.21;84.66;101037.84;4928319;29;20434;-85
2022/07/30 09:12:49;;;;;;;4.72;2.15;;;;;;;24.14;82.27;101034.91;4929999;29;20438;-85
2022/07/30 09:15:21;;;;;;;4.73;2.03;;;;;;;23.76;80.93;101040.00;4949520;28;20444;-86
2022/07/30 09:17:59;;;;;;;28.63;4.07;;;;;;;23.67;87.75;101044.94;4948941;28;20921;-86
2022/07/30 09:20:36;;;;;;;4.65;2.08;;;;;;;23.41;81.25;101041.56;4950186;29;20429;-85
2022/07/30 09:23:10;;;;;;;4.80;1.95;;;;;;;23.35;82.92;101044.97;4946835;28;22357;-85
2022/07/30 09:26:02;;;;;;;3.45;2.00;;;;;;;23.25;81.95;101049.91;4952435;28;21142;-86
2022/07/30 09:28:44;;;;;;;4.78;2.17;;;;;;;23.10;83.76;101047.88;4947620;28;20452;-86
2022/07/30 09:31:53;;;;;;;4.40;2.00;;;;;;;22.94;88.96;101047.88;4949073;28;20435;-85
2022/07/30 09:34:47;;;;;;;4.28;2.10;;;;;;;22.89;88.34;101062.81;4946649;28;20437;-87
2022/07/30 09:37:42;;;;;;;4.80;2.17;;;;;;;22.58;94.55;101066.31;4940907;28;20434;-85
2022/07/30 09:40:50;;;;;;;4.83;2.20;;;;;;;22.39;99.78;101070.53;4942253;28;20447;-85
2022/07/30 09:43:50;;;;;;;7.25;2.20;;;;;;;22.50;100.00;101068.06;4939809;28;20444;-85
2022/07/30 09:46:41;;;;;;;3.97;2.10;;;;;;;22.52;99.81;101071.28;4944877;28;20442;-86
2022/07/30 09:49:22;;;;;;;8.60;2.50;;;;;;;22.53;99.40;101072.13;4932089;29;20421;-88
2022/07/30 09:51:57;;;;;;;6.78;2.30;;;;;;;22.49;100.00;101080.31;4944610;29;20442;-85
2022/07/30 09:54:47;;;;;;;13.85;3.20;;;;;;;22.31;100.00;101067.88;4932824;29;20441;-85
2022/07/30 09:57:27;;;;;;;5.40;2.10;;;;;;;22.21;100.00;101074.72;4942703;28;20432;-87
2022/07/30 10:00:22;;;;;;;5.13;2.20;;;;;;;22.11;100.00;101072.41;4942400;28;20431;-86
2022/07/30 10:03:14;;;;;;;5.25;2.08;;;;;;;22.04;100.00;101073.81;4945953;28;20426;-87
2022/07/30 10:06:11;;;;;;;5.97;2.25;;;;;;;22.21;100.00;101069.97;4945925;28;20437;-84
2022/07/30 10:08:48;;;;;;;4.07;2.05;;;;;;;22.27;100.00;101073.31;4931829;28;20445;-87
2022/07/30 10:11:24;;;;;;;5.88;2.30;;;;;;;22.36;100.00;101081.53;4934806;29;20454;-87
2022/07/30 10:14:01;;;;;;;6.05;2.25;;;;;;;22.29;99.18;101071.00;4947739;29;20415;-86
2022/07/30 10:16:34;;;;;;;5.72;2.20;;;;;;;22.48;98.41;101069.56;4932216;29;20439;-86
2022/07/30 10:19:07;;;;;;;7.70;2.55;;;;;;;22.72;94.79;101063.16;4933972;28;20905;-85
2022/07/30 10:22:16;;;;;;;6.20;2.50;;;;;;;22.85;88.54;101058.34;4874964;29;20507;-85
2022/07/30 10:25:07;;;;;;;5.90;2.35;;;;;;;23.07;91.66;101052.19;4944755;29;20434;-83
2022/07/30 10:27:59;;;;;;;4.07;2.23;;;;;;;23.29;92.35;101063.09;4948250;28;20442;-83
2022/07/30 10:30:34;;;;;;;8.40;2.50;;;;;;;23.68;85.22;101054.91;4934551;29;20527;-84
2022/07/30 10:33:02;;;;;;;5.78;2.30;;;;;;;23.78;88.40;101060.72;4944626;28;20451;-83
2022/07/30 10:35:35;;;;;;;4.95;2.45;;;;;;;23.92;84.46;101045.56;4944759;28;20914;-85
2022/07/30 10:38:07;;;;;;;23.38;3.03;;;;;;;24.02;86.62;101055.31;4932093;29;20503;-83
2022/07/30 10:40:48;;;;;;;6.20;2.50;;;;;;;24.14;83.67;101049.63;4947833;28;20443;-83
2022/07/30 10:43:51;;;;;;;4.28;2.35;;;;;;;24.03;85.10;101045.78;4946315;29;20438;-83
2022/07/30 10:46:38;;;;;;;7.70;2.42;;;;;;;24.20;86.19;101041.81;4946490;28;20449;-83
2022/07/30 10:49:11;;;;;;;5.88;2.40;;;;;;;24.52;87.28;101047.22;4947703;29;20409;-84
2022/07/30 10:51:43;;;;;;;4.55;2.45;;;;;;;24.48;81.00;101040.78;4942402;28;20436;-84
2022/07/30 10:54:40;;;;;;;5.27;2.37;;;;;;;24.42;80.95;101046.66;4948861;29;20427;-84
2022/07/30 10:57:16;;;;;;;4.53;2.30;;;;;;;24.53;84.14;101048.84;4951755;28;20430;-83
2022/07/30 11:00:17;;;;;;;5.35;2.40;;;;;;;24.27;83.61;101047.53;4952577;29;20973;-84
2022/07/30 11:03:13;;;;;;;7.20;2.60;;;;;;;23.88;81.80;101039.94;4878846;29;20422;-83
2022/07/30 11:05:49;;;;;;;5.00;2.37;;;;;;;23.89;89.31;101037.94;4930055;29;20445;-83
2022/07/30 11:08:37;;;;;;;4.97;2.50;;;;;;;24.09;91.11;101042.38;4951819;28;20432;-82
2022/07/30 11:11:46;;;;;;;6.68;2.80;;;;;;;24.42;86.71;101049.44;4950757;29;20779;-83
2022/07/30 11:14:15;;;;;;;3.93;2.33;;;;;;;24.55;82.74;101036.16;4942481;28;20430;-83
2022/07/30 11:17:00;;;;;;;4.50;2.30;;;;;;;25.23;84.01;101045.00;4955803;29;20434;-84
2022/07/30 11:19:33;;;;;;;5.38;2.40;;;;;;;25.38;81.16;101037.72;4953759;29;20438;-84
2022/07/30 11:22:27;;;;;;;4.03;2.53;;;;;;;25.49;81.89;101039.88;4952655;29;20430;-84
2022/07/30 11:25:00;;;;;;;7.13;3.67;;;;;;;25.49;80.63;101028.72;4954318;28;20764;-83
2022/07/30 11:27:37;;;;;;;5.55;2.50;;;;;;;25.75;80.87;101034.28;4930778;28;20449;-83
2022/07/30 11:30:34;;;;;;;7.20;3.08;;;;;;;25.87;80.91;101029.72;4926580;29;20540;-83
2022/07/30 11:33:24;;;;;;;8.23;2.63;;;;;;;25.77;78.22;101012.44;4931578;29;20425;-83
2022/07/30 11:36:09;;;;;;;4.22;2.30;;;;;;;25.87;74.00;101022.13;4911396;29;20437;-83
2022/07/30 11:38:53;;;;;;;6.75;2.50;;;;;;;26.04;72.83;101022.78;4938077;29;20938;-84
2022/07/30 11:41:22;;;;;;;5.53;2.40;;;;;;;25.88;80.85;101034.06;4926862;29;20437;-86
2022/07/30 11:44:29;;;;;;;6.10;2.60;;;;;;;25.87;73.97;101027.72;4936688;29;20453;-86
2022/07/30 11:47:05;;;;;;;4.85;2.30;;;;;;;25.91;81.51;101024.97;4911321;29;20452;-85
2022/07/30 11:49:39;;;;;;;4.55;2.40;;;;;;;26.07;73.21;101008.88;4930032;28;20437;-85
2022/07/30 11:52:13;;;;;;;5.70;2.35;;;;;;;26.10;69.94;101013.72;4933249;28;20438;-84
2022/07/30 11:54:53;;;;;;;5.03;2.40;;;;;;;25.92;74.59;101021.81;4932388;28;20437;-85
2022/07/30 11:57:39;;;;;;;6.57;3.10;;;;;;;25.96;73.34;101014.31;4935938;28;20438;-84
2022/07/30 12:00:09;;;;;;;5.97;2.70;;;;;;;25.95;70.99;101009.09;4935340;28;20426;-85
2022/07/30 12:02:43;;;;;;;5.90;2.70;;;;;;;25.86;74.66;101020.53;4939264;28;20437;-83
2022/07/30 12:05:22;;;;;;;4.47;2.50;;;;;;;26.08;70.63;101013.28;4917299;29;20445;-85
2022/07/30 12:07:51;;;;;;;5.60;2.50;;;;;;;26.05;69.79;101014.03;4930665;28;20480;-83
2022/07/30 12:10:24;;;;;;;4.30;2.42;;;;;;;26.18;72.55;101014.59;4936036;28;20452;-84